Main page
METAR-TAF:

METAR-TAF

Airports :

Kaunas Airport

Kaunas, Lithuania

latitude: 54-54N, longitude: 023-55-12E, elevation: 77 m

Current weather observation

The report was made 15 minutes ago, at 19:50 UTC
Wind 5 kt from the East
Temperature 20°C
Humidity 78%
Pressure 1018 hPa
Visibility 10 km or more
no clouds below 1500 m and no cumulonimbus

METAR: EYKA 251950Z 08005KT CAVOK 20/16 Q1018

Time: 23:05 (20:05 UTC)

Forecast

The report was made 3 hours and 5 minutes ago, at 17:00 UTC
Forecast valid from 25 at 18 UTC to 26 at 18 UTC
Wind 5 kt from variable directions
Visibility 10 km or more
no clouds below 1500 m and no cumulonimbus

TAF: EYKA 251700Z 2518/2618 VRB05KT CAVOK

Weather observations and forecasts of more than 4000 airports (METAR and TAF reports).

The available stations are represented by yellow and red dots on the map.

Hover mouse over dot to see the name of the station.

Then click to see weather observations and forecasts.

To change the map : click on the green buttons with a black cross to zoom in, on the green button with a dash to zoom out, or on the green arrows for adjacent maps.


METAR-TAF: